sensor_id;sensor_type;location;lat;lon;timestamp;temperature;humidity
2945;DHT22;1482;51.398;7.128;2023-05-29T00:01:26;14.10;1.00
2945;DHT22;1482;51.398;7.128;2023-05-29T00:03:52;14.10;1.00
2945;DHT22;1482;51.398;7.128;2023-05-29T00:06:19;14.00;1.00
2945;DHT22;1482;51.398;7.128;2023-05-29T00:08:44;14.00;1.00
2945;DHT22;1482;51.398;7.128;2023-05-29T00:11:10;13.90;1.00
2945;DHT22;1482;51.398;7.128;2023-05-29T00:13:36;13.80;1.00
2945;DHT22;1482;51.398;7.128;2023-05-29T00:16:01;13.80;1.00
2945;DHT22;1482;51.398;7.128;2023-05-29T00:18:28;13.80;1.00
2945;DHT22;1482;51.398;7.128;2023-05-29T00:20:54;13.80;1.00
2945;DHT22;1482;51.398;7.128;2023-05-29T00:23:21;13.80;1.00
2945;DHT22;1482;51.398;7.128;2023-05-29T00:25:47;13.80;1.00
2945;DHT22;1482;51.398;7.128;2023-05-29T00:28:12;13.70;1.00
2945;DHT22;1482;51.398;7.128;2023-05-29T00:30:39;13.50;1.00
2945;DHT22;1482;51.398;7.128;2023-05-29T00:33:05;13.60;1.00
2945;DHT22;1482;51.398;7.128;2023-05-29T00:35:31;13.40;1.00
2945;DHT22;1482;51.398;7.128;2023-05-29T00:37:57;13.40;1.00
2945;DHT22;1482;51.398;7.128;2023-05-29T00:40:23;13.30;1.00
2945;DHT22;1482;51.398;7.128;2023-05-29T00:42:49;13.20;1.00
2945;DHT22;1482;51.398;7.128;2023-05-29T00:45:15;13.30;1.00
2945;DHT22;1482;51.398;7.128;2023-05-29T00:47:41;13.30;1.00
2945;DHT22;1482;51.398;7.128;2023-05-29T00:50:09;13.20;1.00
2945;DHT22;1482;51.398;7.128;2023-05-29T00:52:37;13.10;1.00
2945;DHT22;1482;51.398;7.128;2023-05-29T00:55:03;13.10;1.00
2945;DHT22;1482;51.398;7.128;2023-05-29T00:57:30;13.00;1.00
2945;DHT22;1482;51.398;7.128;2023-05-29T00:59:56;12.90;1.00
2945;DHT22;1482;51.398;7.128;2023-05-29T01:02:23;12.80;1.00
2945;DHT22;1482;51.398;7.128;2023-05-29T01:04:48;12.80;1.00
2945;DHT22;1482;51.398;7.128;2023-05-29T01:07:14;12.80;1.00
2945;DHT22;1482;51.398;7.128;2023-05-29T01:09:41;12.60;1.00
2945;DHT22;1482;51.398;7.128;2023-05-29T01:12:35;12.50;1.00
2945;DHT22;1482;51.398;7.128;2023-05-29T01:15:18;12.40;1.00
2945;DHT22;1482;51.398;7.128;2023-05-29T01:17:57;12.30;1.00
2945;DHT22;1482;51.398;7.128;2023-05-29T01:25:56;12.20;1.00
2945;DHT22;1482;51.398;7.128;2023-05-29T01:28:26;12.10;1.00
2945;DHT22;1482;51.398;7.128;2023-05-29T01:30:54;12.10;1.00
2945;DHT22;1482;51.398;7.128;2023-05-29T01:33:20;12.00;1.00
2945;DHT22;1482;51.398;7.128;2023-05-29T01:35:45;12.00;1.00
2945;DHT22;1482;51.398;7.128;2023-05-29T01:38:11;11.90;1.00
2945;DHT22;1482;51.398;7.128;2023-05-29T01:40:37;11.90;1.00
2945;DHT22;1482;51.398;7.128;2023-05-29T01:43:03;11.90;1.00
2945;DHT22;1482;51.398;7.128;2023-05-29T01:45:29;11.80;1.00
2945;DHT22;1482;51.398;7.128;2023-05-29T01:47:56;11.80;1.00
2945;DHT22;1482;51.398;7.128;2023-05-29T01:50:22;11.80;1.00
2945;DHT22;1482;51.398;7.128;2023-05-29T01:52:48;11.80;1.00
2945;DHT22;1482;51.398;7.128;2023-05-29T01:55:14;11.80;1.00
2945;DHT22;1482;51.398;7.128;2023-05-29T01:57:40;11.60;1.00
2945;DHT22;1482;51.398;7.128;2023-05-29T02:00:07;11.60;1.00
2945;DHT22;1482;51.398;7.128;2023-05-29T02:02:40;11.50;1.00
2945;DHT22;1482;51.398;7.128;2023-05-29T02:05:07;11.40;1.00
2945;DHT22;1482;51.398;7.128;2023-05-29T02:07:36;11.40;1.00
2945;DHT22;1482;51.398;7.128;2023-05-29T02:10:03;11.40;1.00
2945;DHT22;1482;51.398;7.128;2023-05-29T02:12:29;11.40;1.00
2945;DHT22;1482;51.398;7.128;2023-05-29T02:14:54;11.30;1.00
2945;DHT22;1482;51.398;7.128;2023-05-29T02:17:21;11.20;1.00
2945;DHT22;1482;51.398;7.128;2023-05-29T02:19:46;11.00;1.00
2945;DHT22;1482;51.398;7.128;2023-05-29T02:22:12;11.10;1.00
2945;DHT22;1482;51.398;7.128;2023-05-29T02:24:37;11.10;1.00
2945;DHT22;1482;51.398;7.128;2023-05-29T02:27:03;11.00;1.00
2945;DHT22;1482;51.398;7.128;2023-05-29T02:29:29;10.90;1.00
2945;DHT22;1482;51.398;7.128;2023-05-29T02:31:55;11.00;1.00
2945;DHT22;1482;51.398;7.128;2023-05-29T02:34:20;10.90;1.00
2945;DHT22;1482;51.398;7.128;2023-05-29T02:36:48;10.90;1.00
2945;DHT22;1482;51.398;7.128;2023-05-29T02:39:14;10.90;1.00
2945;DHT22;1482;51.398;7.128;2023-05-29T02:41:39;10.80;6.40
2945;DHT22;1482;51.398;7.128;2023-05-29T02:44:05;10.80;1.90
2945;DHT22;1482;51.398;7.128;2023-05-29T02:46:31;10.80;9.80
2945;DHT22;1482;51.398;7.128;2023-05-29T02:48:56;10.70;23.20
2945;DHT22;1482;51.398;7.128;2023-05-29T02:51:22;10.60;43.30
2945;DHT22;1482;51.398;7.128;2023-05-29T02:53:47;10.70;41.90
2945;DHT22;1482;51.398;7.128;2023-05-29T02:56:14;10.70;37.70
2945;DHT22;1482;51.398;7.128;2023-05-29T02:58:41;10.60;46.90
2945;DHT22;1482;51.398;7.128;2023-05-29T03:01:06;10.60;52.10
2945;DHT22;1482;51.398;7.128;2023-05-29T03:03:32;10.60;78.80
2945;DHT22;1482;51.398;7.128;2023-05-29T03:05:57;10.60;96.90
2945;DHT22;1482;51.398;7.128;2023-05-29T03:08:24;10.60;99.90
2945;DHT22;1482;51.398;7.128;2023-05-29T03:10:51;10.60;94.70
2945;DHT22;1482;51.398;7.128;2023-05-29T03:13:17;10.40;99.90
2945;DHT22;1482;51.398;7.128;2023-05-29T03:15:44;10.40;99.90
2945;DHT22;1482;51.398;7.128;2023-05-29T03:18:09;10.40;99.90
2945;DHT22;1482;51.398;7.128;2023-05-29T03:20:35;10.50;99.90
2945;DHT22;1482;51.398;7.128;2023-05-29T03:23:01;10.40;99.90
2945;DHT22;1482;51.398;7.128;2023-05-29T03:25:26;10.40;99.90
2945;DHT22;1482;51.398;7.128;2023-05-29T03:27:52;10.40;99.90
2945;DHT22;1482;51.398;7.128;2023-05-29T03:30:17;10.40;99.90
2945;DHT22;1482;51.398;7.128;2023-05-29T03:32:44;10.40;99.90
2945;DHT22;1482;51.398;7.128;2023-05-29T03:35:10;10.40;99.90
2945;DHT22;1482;51.398;7.128;2023-05-29T03:37:36;10.40;99.90
2945;DHT22;1482;51.398;7.128;2023-05-29T03:40:02;10.40;99.90
2945;DHT22;1482;51.398;7.128;2023-05-29T03:42:28;10.40;99.90
2945;DHT22;1482;51.398;7.128;2023-05-29T03:44:56;10.30;99.90
2945;DHT22;1482;51.398;7.128;2023-05-29T03:47:21;10.30;99.90
2945;DHT22;1482;51.398;7.128;2023-05-29T03:49:47;10.40;99.90
2945;DHT22;1482;51.398;7.128;2023-05-29T03:52:12;10.40;99.90
2945;DHT22;1482;51.398;7.128;2023-05-29T03:54:38;10.50;99.90
2945;DHT22;1482;51.398;7.128;2023-05-29T03:57:03;10.50;99.90
2945;DHT22;1482;51.398;7.128;2023-05-29T03:59:29;10.50;99.90
2945;DHT22;1482;51.398;7.128;2023-05-29T04:01:54;10.40;99.90
2945;DHT22;1482;51.398;7.128;2023-05-29T04:04:20;10.60;99.90
2945;DHT22;1482;51.398;7.128;2023-05-29T04:06:45;10.60;99.90
2945;DHT22;1482;51.398;7.128;2023-05-29T04:09:11;10.60;93.70
2945;DHT22;1482;51.398;7.128;2023-05-29T04:11:37;10.70;96.10
2945;DHT22;1482;51.398;7.128;2023-05-29T04:14:04;10.80;63.50
2945;DHT22;1482;51.398;7.128;2023-05-29T04:16:29;11.00;54.80
2945;DHT22;1482;51.398;7.128;2023-05-29T04:18:55;11.20;8.70
2945;DHT22;1482;51.398;7.128;2023-05-29T04:21:21;11.80;1.00
2945;DHT22;1482;51.398;7.128;2023-05-29T04:23:46;12.40;1.00
2945;DHT22;1482;51.398;7.128;2023-05-29T04:26:12;13.00;1.00
2945;DHT22;1482;51.398;7.128;2023-05-29T04:28:38;13.70;1.00
2945;DHT22;1482;51.398;7.128;2023-05-29T04:31:04;14.50;1.00
2945;DHT22;1482;51.398;7.128;2023-05-29T04:33:31;15.30;1.00
2945;DHT22;1482;51.398;7.128;2023-05-29T04:35:57;16.00;1.00
2945;DHT22;1482;51.398;7.128;2023-05-29T04:38:23;16.00;1.00
2945;DHT22;1482;51.398;7.128;2023-05-29T04:40:52;17.00;1.00
2945;DHT22;1482;51.398;7.128;2023-05-29T04:43:18;17.90;1.00
2945;DHT22;1482;51.398;7.128;2023-05-29T04:45:43;17.70;1.00
2945;DHT22;1482;51.398;7.128;2023-05-29T04:48:09;17.90;1.00
2945;DHT22;1482;51.398;7.128;2023-05-29T04:50:35;17.60;1.00
2945;DHT22;1482;51.398;7.128;2023-05-29T04:53:02;18.00;1.00
2945;DHT22;1482;51.398;7.128;2023-05-29T04:55:27;18.70;1.00
2945;DHT22;1482;51.398;7.128;2023-05-29T04:57:53;19.40;1.00
2945;DHT22;1482;51.398;7.128;2023-05-29T05:00:19;20.60;1.00
2945;DHT22;1482;51.398;7.128;2023-05-29T05:02:45;21.70;1.00
2945;DHT22;1482;51.398;7.128;2023-05-29T05:05:11;22.90;1.00
2945;DHT22;1482;51.398;7.128;2023-05-29T05:07:37;22.40;1.00
2945;DHT22;1482;51.398;7.128;2023-05-29T05:10:03;23.60;1.00
2945;DHT22;1482;51.398;7.128;2023-05-29T05:12:29;24.10;1.00
2945;DHT22;1482;51.398;7.128;2023-05-29T05:14:55;24.70;1.00
2945;DHT22;1482;51.398;7.128;2023-05-29T05:17:21;24.80;1.00
2945;DHT22;1482;51.398;7.128;2023-05-29T05:19:47;24.70;1.00
2945;DHT22;1482;51.398;7.128;2023-05-29T05:22:14;25.80;1.00
2945;DHT22;1482;51.398;7.128;2023-05-29T05:24:40;26.10;1.00
2945;DHT22;1482;51.398;7.128;2023-05-29T05:27:06;25.90;1.00
2945;DHT22;1482;51.398;7.128;2023-05-29T05:29:32;26.30;1.00
2945;DHT22;1482;51.398;7.128;2023-05-29T05:31:57;25.50;1.00
2945;DHT22;1482;51.398;7.128;2023-05-29T05:34:23;24.30;1.00
2945;DHT22;1482;51.398;7.128;2023-05-29T05:36:48;23.60;1.00
2945;DHT22;1482;51.398;7.128;2023-05-29T05:39:14;23.60;1.00
2945;DHT22;1482;51.398;7.128;2023-05-29T05:41:40;23.90;1.00
2945;DHT22;1482;51.398;7.128;2023-05-29T05:44:05;23.50;1.00
2945;DHT22;1482;51.398;7.128;2023-05-29T05:46:31;24.60;1.00
2945;DHT22;1482;51.398;7.128;2023-05-29T05:48:57;24.40;1.00
2945;DHT22;1482;51.398;7.128;2023-05-29T05:51:25;24.90;1.00
2945;DHT22;1482;51.398;7.128;2023-05-29T05:53:52;25.80;1.00
2945;DHT22;1482;51.398;7.128;2023-05-29T05:56:17;25.70;1.00
2945;DHT22;1482;51.398;7.128;2023-05-29T05:58:43;24.50;1.00
2945;DHT22;1482;51.398;7.128;2023-05-29T06:01:08;24.70;1.00
2945;DHT22;1482;51.398;7.128;2023-05-29T06:03:35;24.20;1.00
2945;DHT22;1482;51.398;7.128;2023-05-29T06:06:02;24.50;1.00
2945;DHT22;1482;51.398;7.128;2023-05-29T06:08:27;25.40;1.00
2945;DHT22;1482;51.398;7.128;2023-05-29T06:10:53;26.60;1.00
2945;DHT22;1482;51.398;7.128;2023-05-29T06:13:18;28.30;1.00
2945;DHT22;1482;51.398;7.128;2023-05-29T06:15:44;25.90;1.00
2945;DHT22;1482;51.398;7.128;2023-05-29T06:18:10;26.60;1.00
2945;DHT22;1482;51.398;7.128;2023-05-29T06:20:36;26.90;1.00
2945;DHT22;1482;51.398;7.128;2023-05-29T06:23:01;26.40;1.00
2945;DHT22;1482;51.398;7.128;2023-05-29T06:25:27;27.30;1.00
2945;DHT22;1482;51.398;7.128;2023-05-29T06:27:59;26.50;1.00
2945;DHT22;1482;51.398;7.128;2023-05-29T06:30:25;25.50;1.00
2945;DHT22;1482;51.398;7.128;2023-05-29T06:32:50;24.70;1.00
2945;DHT22;1482;51.398;7.128;2023-05-29T06:35:16;25.10;1.00
2945;DHT22;1482;51.398;7.128;2023-05-29T06:37:41;25.40;1.00
2945;DHT22;1482;51.398;7.128;2023-05-29T06:40:07;24.60;1.00
2945;DHT22;1482;51.398;7.128;2023-05-29T06:42:33;26.00;1.00
2945;DHT22;1482;51.398;7.128;2023-05-29T06:44:58;27.10;1.00
2945;DHT22;1482;51.398;7.128;2023-05-29T06:47:24;29.10;1.00
2945;DHT22;1482;51.398;7.128;2023-05-29T06:49:50;30.50;1.00
2945;DHT22;1482;51.398;7.128;2023-05-29T06:52:15;30.50;1.00
2945;DHT22;1482;51.398;7.128;2023-05-29T06:54:41;30.60;1.00
2945;DHT22;1482;51.398;7.128;2023-05-29T06:57:07;30.90;1.00
2945;DHT22;1482;51.398;7.128;2023-05-29T06:59:33;30.60;1.00
2945;DHT22;1482;51.398;7.128;2023-05-29T07:01:58;29.70;1.00
2945;DHT22;1482;51.398;7.128;2023-05-29T07:04:24;28.80;1.00
2945;DHT22;1482;51.398;7.128;2023-05-29T07:06:50;30.10;1.00
2945;DHT22;1482;51.398;7.128;2023-05-29T07:09:16;32.40;1.00
2945;DHT22;1482;51.398;7.128;2023-05-29T07:11:42;32.60;1.00
2945;DHT22;1482;51.398;7.128;2023-05-29T07:14:07;33.30;1.00
2945;DHT22;1482;51.398;7.128;2023-05-29T07:16:33;31.50;1.00
2945;DHT22;1482;51.398;7.128;2023-05-29T07:18:58;31.10;1.00
2945;DHT22;1482;51.398;7.128;2023-05-29T07:21:24;30.80;1.00
2945;DHT22;1482;51.398;7.128;2023-05-29T07:23:50;31.40;1.00
2945;DHT22;1482;51.398;7.128;2023-05-29T07:26:15;32.00;1.00
2945;DHT22;1482;51.398;7.128;2023-05-29T07:28:41;31.50;1.00
2945;DHT22;1482;51.398;7.128;2023-05-29T07:31:07;30.90;1.00
2945;DHT22;1482;51.398;7.128;2023-05-29T07:33:32;31.40;1.00
2945;DHT22;1482;51.398;7.128;2023-05-29T07:35:58;31.90;1.00
2945;DHT22;1482;51.398;7.128;2023-05-29T07:38:23;31.80;1.00
2945;DHT22;1482;51.398;7.128;2023-05-29T07:40:49;32.00;1.00
2945;DHT22;1482;51.398;7.128;2023-05-29T07:43:14;32.90;1.00
2945;DHT22;1482;51.398;7.128;2023-05-29T07:45:40;33.40;1.00
2945;DHT22;1482;51.398;7.128;2023-05-29T07:48:05;32.40;1.00
2945;DHT22;1482;51.398;7.128;2023-05-29T07:50:31;31.60;1.00
2945;DHT22;1482;51.398;7.128;2023-05-29T07:52:56;31.30;1.00
2945;DHT22;1482;51.398;7.128;2023-05-29T07:55:22;31.20;1.00
2945;DHT22;1482;51.398;7.128;2023-05-29T07:57:48;32.30;1.00
2945;DHT22;1482;51.398;7.128;2023-05-29T08:00:14;33.70;1.00
2945;DHT22;1482;51.398;7.128;2023-05-29T08:02:40;34.50;1.00
2945;DHT22;1482;51.398;7.128;2023-05-29T08:05:08;34.10;1.00
2945;DHT22;1482;51.398;7.128;2023-05-29T08:07:34;34.40;1.00
2945;DHT22;1482;51.398;7.128;2023-05-29T08:10:00;35.00;1.00
2945;DHT22;1482;51.398;7.128;2023-05-29T08:12:25;34.20;1.00
2945;DHT22;1482;51.398;7.128;2023-05-29T08:14:51;34.50;1.00
2945;DHT22;1482;51.398;7.128;2023-05-29T08:17:16;34.50;1.00
2945;DHT22;1482;51.398;7.128;2023-05-29T08:19:42;34.40;1.00
2945;DHT22;1482;51.398;7.128;2023-05-29T08:22:12;34.00;1.00
2945;DHT22;1482;51.398;7.128;2023-05-29T08:24:38;34.10;1.00
2945;DHT22;1482;51.398;7.128;2023-05-29T08:27:04;33.10;1.00
2945;DHT22;1482;51.398;7.128;2023-05-29T08:29:29;33.30;1.00
2945;DHT22;1482;51.398;7.128;2023-05-29T08:31:55;32.60;1.00
2945;DHT22;1482;51.398;7.128;2023-05-29T08:34:20;31.30;1.00
2945;DHT22;1482;51.398;7.128;2023-05-29T08:36:46;30.10;1.00
2945;DHT22;1482;51.398;7.128;2023-05-29T08:39:11;29.10;1.00
2945;DHT22;1482;51.398;7.128;2023-05-29T08:44:23;27.80;1.00
2945;DHT22;1482;51.398;7.128;2023-05-29T08:46:54;26.70;1.00
2945;DHT22;1482;51.398;7.128;2023-05-29T08:49:21;26.30;1.00
2945;DHT22;1482;51.398;7.128;2023-05-29T08:51:57;25.60;1.00
2945;DHT22;1482;51.398;7.128;2023-05-29T08:54:30;24.90;1.00
2945;DHT22;1482;51.398;7.128;2023-05-29T08:56:56;24.20;1.00
2945;DHT22;1482;51.398;7.128;2023-05-29T08:59:23;24.60;1.00
2945;DHT22;1482;51.398;7.128;2023-05-29T09:01:50;24.20;1.00
2945;DHT22;1482;51.398;7.128;2023-05-29T09:04:16;24.00;1.00
2945;DHT22;1482;51.398;7.128;2023-05-29T09:06:42;24.50;1.00
2945;DHT22;1482;51.398;7.128;2023-05-29T09:09:08;24.00;1.00
2945;DHT22;1482;51.398;7.128;2023-05-29T09:11:35;23.90;1.00
2945;DHT22;1482;51.398;7.128;2023-05-29T09:14:00;23.90;1.00
2945;DHT22;1482;51.398;7.128;2023-05-29T09:16:27;23.20;1.00
2945;DHT22;1482;51.398;7.128;2023-05-29T09:19:04;23.20;1.00
2945;DHT22;1482;51.398;7.128;2023-05-29T09:21:31;23.50;1.00
2945;DHT22;1482;51.398;7.128;2023-05-29T09:24:03;23.40;1.00
2945;DHT22;1482;51.398;7.128;2023-05-29T09:26:31;23.10;1.00
2945;DHT22;1482;51.398;7.128;2023-05-29T09:28:57;22.70;1.00
2945;DHT22;1482;51.398;7.128;2023-05-29T09:31:23;22.70;1.00
2945;DHT22;1482;51.398;7.128;2023-05-29T09:33:50;23.10;1.00
2945;DHT22;1482;51.398;7.128;2023-05-29T09:36:22;23.20;1.00
2945;DHT22;1482;51.398;7.128;2023-05-29T09:38:48;23.00;1.00
2945;DHT22;1482;51.398;7.128;2023-05-29T09:41:20;23.20;1.00
2945;DHT22;1482;51.398;7.128;2023-05-29T09:43:50;23.50;1.00
2945;DHT22;1482;51.398;7.128;2023-05-29T09:46:16;23.20;1.00
2945;DHT22;1482;51.398;7.128;2023-05-29T09:48:45;22.90;1.00
2945;DHT22;1482;51.398;7.128;2023-05-29T09:51:21;22.30;1.00
2945;DHT22;1482;51.398;7.128;2023-05-29T09:53:50;22.10;1.00
2945;DHT22;1482;51.398;7.128;2023-05-29T09:56:16;22.60;1.00
2945;DHT22;1482;51.398;7.128;2023-05-29T09:58:43;23.00;1.00
2945;DHT22;1482;51.398;7.128;2023-05-29T10:01:13;23.50;1.00
2945;DHT22;1482;51.398;7.128;2023-05-29T10:03:41;23.40;1.00
2945;DHT22;1482;51.398;7.128;2023-05-29T10:06:10;23.40;1.00
2945;DHT22;1482;51.398;7.128;2023-05-29T10:08:37;23.50;1.00
2945;DHT22;1482;51.398;7.128;2023-05-29T10:11:08;23.20;1.00
2945;DHT22;1482;51.398;7.128;2023-05-29T10:13:39;23.30;1.00
2945;DHT22;1482;51.398;7.128;2023-05-29T10:16:08;22.60;1.00
2945;DHT22;1482;51.398;7.128;2023-05-29T10:18:37;22.80;1.00
2945;DHT22;1482;51.398;7.128;2023-05-29T10:21:07;23.00;1.00
2945;DHT22;1482;51.398;7.128;2023-05-29T10:23:34;22.90;1.00
2945;DHT22;1482;51.398;7.128;2023-05-29T10:26:25;22.60;1.00
2945;DHT22;1482;51.398;7.128;2023-05-29T10:32:16;22.60;1.00
2945;DHT22;1482;51.398;7.128;2023-05-29T10:34:59;23.10;1.00
2945;DHT22;1482;51.398;7.128;2023-05-29T10:37:46;23.10;1.00
2945;DHT22;1482;51.398;7.128;2023-05-29T10:40:13;23.20;1.00
2945;DHT22;1482;51.398;7.128;2023-05-29T10:45:04;23.60;1.00
2945;DHT22;1482;51.398;7.128;2023-05-29T10:47:30;23.30;1.00
2945;DHT22;1482;51.398;7.128;2023-05-29T10:50:00;23.50;1.00
2945;DHT22;1482;51.398;7.128;2023-05-29T10:52:26;23.70;1.00
2945;DHT22;1482;51.398;7.128;2023-05-29T10:54:53;23.90;1.00
2945;DHT22;1482;51.398;7.128;2023-05-29T10:57:21;23.70;1.00
2945;DHT22;1482;51.398;7.128;2023-05-29T10:59:47;23.70;1.00
2945;DHT22;1482;51.398;7.128;2023-05-29T11:02:17;23.90;1.00
2945;DHT22;1482;51.398;7.128;2023-05-29T11:04:43;23.70;1.00
2945;DHT22;1482;51.398;7.128;2023-05-29T11:07:32;23.60;1.00
2945;DHT22;1482;51.398;7.128;2023-05-29T11:10:11;23.30;1.00
2945;DHT22;1482;51.398;7.128;2023-05-29T11:12:56;23.50;1.00
2945;DHT22;1482;51.398;7.128;2023-05-29T11:15:24;23.50;1.00
2945;DHT22;1482;51.398;7.128;2023-05-29T11:17:50;23.10;1.00
2945;DHT22;1482;51.398;7.128;2023-05-29T11:20:27;22.50;1.00
2945;DHT22;1482;51.398;7.128;2023-05-29T11:25:26;23.00;1.00
2945;DHT22;1482;51.398;7.128;2023-05-29T11:27:51;22.70;1.00
2945;DHT22;1482;51.398;7.128;2023-05-29T11:30:18;22.50;1.00
2945;DHT22;1482;51.398;7.128;2023-05-29T11:32:45;23.00;1.00
2945;DHT22;1482;51.398;7.128;2023-05-29T11:35:12;23.50;1.00
2945;DHT22;1482;51.398;7.128;2023-05-29T11:37:39;23.70;1.00
2945;DHT22;1482;51.398;7.128;2023-05-29T11:40:08;23.80;1.00
2945;DHT22;1482;51.398;7.128;2023-05-29T11:42:34;23.80;1.00
2945;DHT22;1482;51.398;7.128;2023-05-29T11:45:19;23.80;1.00
2945;DHT22;1482;51.398;7.128;2023-05-29T11:48:00;23.80;1.00
2945;DHT22;1482;51.398;7.128;2023-05-29T11:50:28;23.90;1.00
2945;DHT22;1482;51.398;7.128;2023-05-29T11:52:55;24.10;1.00
2945;DHT22;1482;51.398;7.128;2023-05-29T11:55:21;24.00;1.00
2945;DHT22;1482;51.398;7.128;2023-05-29T11:57:48;23.50;1.00
2945;DHT22;1482;51.398;7.128;2023-05-29T12:00:15;23.80;1.00
2945;DHT22;1482;51.398;7.128;2023-05-29T12:02:41;23.90;1.00
2945;DHT22;1482;51.398;7.128;2023-05-29T12:05:13;23.80;1.00
2945;DHT22;1482;51.398;7.128;2023-05-29T12:07:52;23.70;1.00
2945;DHT22;1482;51.398;7.128;2023-05-29T12:10:19;23.30;1.00
2945;DHT22;1482;51.398;7.128;2023-05-29T12:12:59;23.30;1.00
2945;DHT22;1482;51.398;7.128;2023-05-29T12:15:25;22.80;1.00
2945;DHT22;1482;51.398;7.128;2023-05-29T12:17:52;22.90;1.00
2945;DHT22;1482;51.398;7.128;2023-05-29T12:20:19;23.00;1.00
2945;DHT22;1482;51.398;7.128;2023-05-29T12:22:46;22.90;1.00
2945;DHT22;1482;51.398;7.128;2023-05-29T12:25:13;22.70;1.00
2945;DHT22;1482;51.398;7.128;2023-05-29T12:27:41;22.70;1.00
2945;DHT22;1482;51.398;7.128;2023-05-29T12:30:09;22.90;1.00
2945;DHT22;1482;51.398;7.128;2023-05-29T12:32:39;23.20;1.00
2945;DHT22;1482;51.398;7.128;2023-05-29T12:35:19;23.30;1.00
2945;DHT22;1482;51.398;7.128;2023-05-29T12:37:47;23.20;1.00
2945;DHT22;1482;51.398;7.128;2023-05-29T12:40:17;23.20;1.00
2945;DHT22;1482;51.398;7.128;2023-05-29T12:42:43;23.40;1.00
2945;DHT22;1482;51.398;7.128;2023-05-29T12:45:09;23.50;1.00
2945;DHT22;1482;51.398;7.128;2023-05-29T12:47:35;23.20;1.00
2945;DHT22;1482;51.398;7.128;2023-05-29T12:50:20;23.00;1.00
2945;DHT22;1482;51.398;7.128;2023-05-29T12:53:11;23.20;1.00
2945;DHT22;1482;51.398;7.128;2023-05-29T12:55:39;23.50;1.00
2945;DHT22;1482;51.398;7.128;2023-05-29T12:58:05;23.50;1.00
2945;DHT22;1482;51.398;7.128;2023-05-29T13:00:36;23.60;1.00
2945;DHT22;1482;51.398;7.128;2023-05-29T13:03:02;23.60;1.00
2945;DHT22;1482;51.398;7.128;2023-05-29T13:05:28;23.60;1.00
2945;DHT22;1482;51.398;7.128;2023-05-29T13:07:53;23.50;1.00
2945;DHT22;1482;51.398;7.128;2023-05-29T13:10:20;23.40;1.00
2945;DHT22;1482;51.398;7.128;2023-05-29T13:12:47;23.40;1.00
2945;DHT22;1482;51.398;7.128;2023-05-29T13:15:14;23.30;1.00
2945;DHT22;1482;51.398;7.128;2023-05-29T13:17:40;23.60;1.00
2945;DHT22;1482;51.398;7.128;2023-05-29T13:20:10;23.30;1.00
2945;DHT22;1482;51.398;7.128;2023-05-29T13:22:37;23.40;1.00
2945;DHT22;1482;51.398;7.128;2023-05-29T13:25:03;23.00;1.00
2945;DHT22;1482;51.398;7.128;2023-05-29T13:27:33;22.90;1.00
2945;DHT22;1482;51.398;7.128;2023-05-29T13:29:59;23.00;1.00
2945;DHT22;1482;51.398;7.128;2023-05-29T13:32:25;22.80;1.00
2945;DHT22;1482;51.398;7.128;2023-05-29T13:34:50;23.10;1.00
2945;DHT22;1482;51.398;7.128;2023-05-29T13:37:16;23.00;1.00
2945;DHT22;1482;51.398;7.128;2023-05-29T13:39:42;22.70;1.00
2945;DHT22;1482;51.398;7.128;2023-05-29T13:42:08;22.80;1.00
2945;DHT22;1482;51.398;7.128;2023-05-29T13:44:34;23.00;1.00
2945;DHT22;1482;51.398;7.128;2023-05-29T13:46:59;22.90;1.00
2945;DHT22;1482;51.398;7.128;2023-05-29T13:49:26;22.60;1.00
2945;DHT22;1482;51.398;7.128;2023-05-29T13:51:52;22.20;1.00
2945;DHT22;1482;51.398;7.128;2023-05-29T13:54:17;22.30;1.00
2945;DHT22;1482;51.398;7.128;2023-05-29T13:56:43;21.70;1.00
2945;DHT22;1482;51.398;7.128;2023-05-29T13:59:09;21.90;1.00
2945;DHT22;1482;51.398;7.128;2023-05-29T14:01:34;21.60;1.00
2945;DHT22;1482;51.398;7.128;2023-05-29T14:04:00;21.80;1.00
2945;DHT22;1482;51.398;7.128;2023-05-29T14:06:26;21.80;1.00
2945;DHT22;1482;51.398;7.128;2023-05-29T14:08:52;21.90;1.00
2945;DHT22;1482;51.398;7.128;2023-05-29T14:11:18;22.20;1.00
2945;DHT22;1482;51.398;7.128;2023-05-29T14:13:43;22.00;1.00
2945;DHT22;1482;51.398;7.128;2023-05-29T14:16:09;22.10;1.00
2945;DHT22;1482;51.398;7.128;2023-05-29T14:18:35;22.10;1.00
2945;DHT22;1482;51.398;7.128;2023-05-29T14:21:00;22.10;1.00
2945;DHT22;1482;51.398;7.128;2023-05-29T14:23:26;22.00;1.00
2945;DHT22;1482;51.398;7.128;2023-05-29T14:25:51;22.20;1.00
2945;DHT22;1482;51.398;7.128;2023-05-29T14:28:17;22.00;1.00
2945;DHT22;1482;51.398;7.128;2023-05-29T14:30:42;21.70;1.00
2945;DHT22;1482;51.398;7.128;2023-05-29T14:33:08;21.70;1.00
2945;DHT22;1482;51.398;7.128;2023-05-29T14:35:34;21.60;1.00
2945;DHT22;1482;51.398;7.128;2023-05-29T14:38:00;21.60;1.00
2945;DHT22;1482;51.398;7.128;2023-05-29T14:40:25;21.60;1.00
2945;DHT22;1482;51.398;7.128;2023-05-29T14:42:51;21.20;1.00
2945;DHT22;1482;51.398;7.128;2023-05-29T14:45:17;21.30;1.00
2945;DHT22;1482;51.398;7.128;2023-05-29T14:47:42;21.40;1.00
2945;DHT22;1482;51.398;7.128;2023-05-29T14:50:08;21.30;1.00
2945;DHT22;1482;51.398;7.128;2023-05-29T14:52:34;21.40;1.00
2945;DHT22;1482;51.398;7.128;2023-05-29T14:55:04;21.60;1.00
2945;DHT22;1482;51.398;7.128;2023-05-29T14:57:30;21.80;1.00
2945;DHT22;1482;51.398;7.128;2023-05-29T14:59:58;21.90;1.00
2945;DHT22;1482;51.398;7.128;2023-05-29T15:02:24;21.90;1.00
2945;DHT22;1482;51.398;7.128;2023-05-29T15:04:50;22.00;1.00
2945;DHT22;1482;51.398;7.128;2023-05-29T15:07:16;22.00;1.00
2945;DHT22;1482;51.398;7.128;2023-05-29T15:09:42;22.10;1.00
2945;DHT22;1482;51.398;7.128;2023-05-29T15:12:08;21.90;1.00
2945;DHT22;1482;51.398;7.128;2023-05-29T15:14:33;21.80;1.00
2945;DHT22;1482;51.398;7.128;2023-05-29T15:16:59;21.50;1.00
2945;DHT22;1482;51.398;7.128;2023-05-29T15:19:25;21.50;1.00
2945;DHT22;1482;51.398;7.128;2023-05-29T15:21:51;21.70;1.00
2945;DHT22;1482;51.398;7.128;2023-05-29T15:24:17;21.60;1.00
2945;DHT22;1482;51.398;7.128;2023-05-29T15:26:42;21.60;1.00
2945;DHT22;1482;51.398;7.128;2023-05-29T15:29:08;21.60;1.00
2945;DHT22;1482;51.398;7.128;2023-05-29T15:31:33;21.70;1.00
2945;DHT22;1482;51.398;7.128;2023-05-29T15:33:59;21.60;1.00
2945;DHT22;1482;51.398;7.128;2023-05-29T15:36:25;21.40;1.00
2945;DHT22;1482;51.398;7.128;2023-05-29T15:38:50;21.30;1.00
2945;DHT22;1482;51.398;7.128;2023-05-29T15:41:16;21.30;1.00
2945;DHT22;1482;51.398;7.128;2023-05-29T15:43:42;21.00;1.00
2945;DHT22;1482;51.398;7.128;2023-05-29T15:46:07;20.90;1.00
2945;DHT22;1482;51.398;7.128;2023-05-29T15:48:34;20.90;1.00
2945;DHT22;1482;51.398;7.128;2023-05-29T15:50:59;20.80;1.00
2945;DHT22;1482;51.398;7.128;2023-05-29T15:53:25;20.70;1.00
2945;DHT22;1482;51.398;7.128;2023-05-29T15:55:50;20.70;1.00
2945;DHT22;1482;51.398;7.128;2023-05-29T15:58:16;20.70;1.00
2945;DHT22;1482;51.398;7.128;2023-05-29T16:00:41;20.80;1.00
2945;DHT22;1482;51.398;7.128;2023-05-29T16:03:07;20.80;1.00
2945;DHT22;1482;51.398;7.128;2023-05-29T16:05:34;20.80;1.00
2945;DHT22;1482;51.398;7.128;2023-05-29T16:08:01;20.80;1.00
2945;DHT22;1482;51.398;7.128;2023-05-29T16:10:26;20.70;1.00
2945;DHT22;1482;51.398;7.128;2023-05-29T16:12:53;20.80;1.00
2945;DHT22;1482;51.398;7.128;2023-05-29T16:15:19;20.70;1.00
2945;DHT22;1482;51.398;7.128;2023-05-29T16:17:46;20.50;1.00
2945;DHT22;1482;51.398;7.128;2023-05-29T16:20:11;20.50;1.00
2945;DHT22;1482;51.398;7.128;2023-05-29T16:22:38;20.40;1.00
2945;DHT22;1482;51.398;7.128;2023-05-29T16:25:04;20.30;1.00
2945;DHT22;1482;51.398;7.128;2023-05-29T16:27:30;20.40;1.00
2945;DHT22;1482;51.398;7.128;2023-05-29T16:29:56;20.50;1.00
2945;DHT22;1482;51.398;7.128;2023-05-29T16:32:22;20.50;1.00